sensor_id;sensor_type;location;lat;lon;timestamp;P1;durP1;ratioP1;P2;durP2;ratioP2
50709;SDS011;37033;49.994;21.992;2023-03-19T00:00:37;5.20;;;3.70;;
50709;SDS011;37033;49.994;21.992;2023-03-19T00:03:28;8.80;;;4.20;;
50709;SDS011;37033;49.994;21.992;2023-03-19T00:05:59;8.80;;;3.60;;
50709;SDS011;37033;49.994;21.992;2023-03-19T00:08:29;10.40;;;4.20;;
50709;SDS011;37033;49.994;21.992;2023-03-19T00:11:05;7.10;;;3.20;;
50709;SDS011;37033;49.994;21.992;2023-03-19T00:13:36;7.50;;;3.60;;
50709;SDS011;37033;49.994;21.992;2023-03-19T00:16:08;6.50;;;3.60;;
50709;SDS011;37033;49.994;21.992;2023-03-19T00:18:38;6.40;;;2.90;;
50709;SDS011;37033;49.994;21.992;2023-03-19T00:21:09;7.70;;;3.90;;
50709;SDS011;37033;49.994;21.992;2023-03-19T00:23:40;6.40;;;4.00;;
50709;SDS011;37033;49.994;21.992;2023-03-19T00:26:10;5.10;;;3.60;;
50709;SDS011;37033;49.994;21.992;2023-03-19T00:28:41;6.70;;;4.00;;
50709;SDS011;37033;49.994;21.992;2023-03-19T00:31:13;7.40;;;3.40;;
50709;SDS011;37033;49.994;21.992;2023-03-19T00:33:44;6.00;;;3.70;;
50709;SDS011;37033;49.994;21.992;2023-03-19T00:36:15;5.80;;;3.40;;
50709;SDS011;37033;49.994;21.992;2023-03-19T00:38:46;5.80;;;3.80;;
50709;SDS011;37033;49.994;21.992;2023-03-19T00:41:17;5.50;;;3.10;;
50709;SDS011;37033;49.994;21.992;2023-03-19T00:43:52;5.30;;;2.90;;
50709;SDS011;37033;49.994;21.992;2023-03-19T00:46:24;5.40;;;3.40;;
50709;SDS011;37033;49.994;21.992;2023-03-19T00:48:54;5.10;;;2.80;;
50709;SDS011;37033;49.994;21.992;2023-03-19T00:51:25;5.80;;;2.70;;
50709;SDS011;37033;49.994;21.992;2023-03-19T00:53:56;6.30;;;3.40;;
50709;SDS011;37033;49.994;21.992;2023-03-19T00:56:27;7.10;;;3.10;;
50709;SDS011;37033;49.994;21.992;2023-03-19T00:58:57;5.30;;;3.40;;
50709;SDS011;37033;49.994;21.992;2023-03-19T01:01:28;4.60;;;3.10;;
50709;SDS011;37033;49.994;21.992;2023-03-19T01:03:59;4.10;;;2.80;;
50709;SDS011;37033;49.994;21.992;2023-03-19T01:06:29;3.80;;;2.80;;
50709;SDS011;37033;49.994;21.992;2023-03-19T01:09:00;4.10;;;2.90;;
50709;SDS011;37033;49.994;21.992;2023-03-19T01:11:31;4.70;;;3.00;;
50709;SDS011;37033;49.994;21.992;2023-03-19T01:14:02;5.90;;;3.10;;
50709;SDS011;37033;49.994;21.992;2023-03-19T01:16:33;6.20;;;3.40;;
50709;SDS011;37033;49.994;21.992;2023-03-19T01:19:04;5.20;;;3.20;;
50709;SDS011;37033;49.994;21.992;2023-03-19T01:21:34;6.80;;;3.30;;
50709;SDS011;37033;49.994;21.992;2023-03-19T01:24:06;4.50;;;3.20;;
50709;SDS011;37033;49.994;21.992;2023-03-19T01:26:37;3.90;;;2.80;;
50709;SDS011;37033;49.994;21.992;2023-03-19T01:29:08;5.10;;;3.00;;
50709;SDS011;37033;49.994;21.992;2023-03-19T01:31:39;4.10;;;2.90;;
50709;SDS011;37033;49.994;21.992;2023-03-19T01:34:10;4.00;;;2.90;;
50709;SDS011;37033;49.994;21.992;2023-03-19T01:36:40;4.70;;;3.10;;
50709;SDS011;37033;49.994;21.992;2023-03-19T01:39:11;4.40;;;3.20;;
50709;SDS011;37033;49.994;21.992;2023-03-19T01:41:42;5.70;;;3.20;;
50709;SDS011;37033;49.994;21.992;2023-03-19T01:44:25;5.20;;;2.70;;
50709;SDS011;37033;49.994;21.992;2023-03-19T01:46:58;3.70;;;2.80;;
50709;SDS011;37033;49.994;21.992;2023-03-19T01:49:32;4.60;;;2.80;;
50709;SDS011;37033;49.994;21.992;2023-03-19T01:52:05;3.30;;;2.70;;
50709;SDS011;37033;49.994;21.992;2023-03-19T01:54:37;3.80;;;3.30;;
50709;SDS011;37033;49.994;21.992;2023-03-19T01:57:10;7.10;;;2.70;;
50709;SDS011;37033;49.994;21.992;2023-03-19T01:59:44;5.40;;;2.60;;
50709;SDS011;37033;49.994;21.992;2023-03-19T02:02:20;4.00;;;2.60;;
50709;SDS011;37033;49.994;21.992;2023-03-19T02:04:57;4.00;;;2.40;;
50709;SDS011;37033;49.994;21.992;2023-03-19T02:07:31;6.30;;;2.80;;
50709;SDS011;37033;49.994;21.992;2023-03-19T02:10:07;6.80;;;3.40;;
50709;SDS011;37033;49.994;21.992;2023-03-19T02:12:41;3.60;;;2.70;;
50709;SDS011;37033;49.994;21.992;2023-03-19T02:15:12;4.60;;;2.70;;
50709;SDS011;37033;49.994;21.992;2023-03-19T02:17:43;3.60;;;2.90;;
50709;SDS011;37033;49.994;21.992;2023-03-19T02:20:15;5.60;;;3.10;;
50709;SDS011;37033;49.994;21.992;2023-03-19T02:22:54;5.60;;;2.80;;
50709;SDS011;37033;49.994;21.992;2023-03-19T02:25:31;6.20;;;3.30;;
50709;SDS011;37033;49.994;21.992;2023-03-19T02:28:07;7.20;;;2.90;;
50709;SDS011;37033;49.994;21.992;2023-03-19T02:30:39;5.80;;;3.20;;
50709;SDS011;37033;49.994;21.992;2023-03-19T02:33:12;5.50;;;2.70;;
50709;SDS011;37033;49.994;21.992;2023-03-19T02:35:45;3.60;;;3.00;;
50709;SDS011;37033;49.994;21.992;2023-03-19T02:38:19;2.80;;;2.30;;
50709;SDS011;37033;49.994;21.992;2023-03-19T02:40:52;3.30;;;2.60;;
50709;SDS011;37033;49.994;21.992;2023-03-19T02:43:27;6.30;;;2.90;;
50709;SDS011;37033;49.994;21.992;2023-03-19T02:46:00;5.00;;;2.70;;
50709;SDS011;37033;49.994;21.992;2023-03-19T02:48:33;4.70;;;2.70;;
50709;SDS011;37033;49.994;21.992;2023-03-19T02:51:04;4.10;;;2.60;;
50709;SDS011;37033;49.994;21.992;2023-03-19T02:53:37;6.50;;;3.50;;
50709;SDS011;37033;49.994;21.992;2023-03-19T02:56:08;4.50;;;2.70;;
50709;SDS011;37033;49.994;21.992;2023-03-19T02:58:38;7.40;;;3.80;;
50709;SDS011;37033;49.994;21.992;2023-03-19T03:01:09;5.40;;;3.50;;
50709;SDS011;37033;49.994;21.992;2023-03-19T03:03:40;6.80;;;3.10;;
50709;SDS011;37033;49.994;21.992;2023-03-19T03:06:11;4.90;;;3.50;;
50709;SDS011;37033;49.994;21.992;2023-03-19T03:08:42;5.40;;;3.90;;
50709;SDS011;37033;49.994;21.992;2023-03-19T03:11:13;6.70;;;4.00;;
50709;SDS011;37033;49.994;21.992;2023-03-19T03:13:44;6.70;;;4.00;;
50709;SDS011;37033;49.994;21.992;2023-03-19T03:16:14;7.40;;;3.30;;
50709;SDS011;37033;49.994;21.992;2023-03-19T03:18:45;7.50;;;3.30;;
50709;SDS011;37033;49.994;21.992;2023-03-19T03:21:16;5.80;;;2.90;;
50709;SDS011;37033;49.994;21.992;2023-03-19T03:23:48;8.20;;;3.10;;
50709;SDS011;37033;49.994;21.992;2023-03-19T03:26:19;4.30;;;2.60;;
50709;SDS011;37033;49.994;21.992;2023-03-19T03:28:50;5.50;;;2.30;;
50709;SDS011;37033;49.994;21.992;2023-03-19T03:31:21;4.10;;;2.50;;
50709;SDS011;37033;49.994;21.992;2023-03-19T03:33:51;4.10;;;3.20;;
50709;SDS011;37033;49.994;21.992;2023-03-19T03:36:22;6.20;;;3.10;;
50709;SDS011;37033;49.994;21.992;2023-03-19T03:38:54;5.40;;;2.60;;
50709;SDS011;37033;49.994;21.992;2023-03-19T03:41:25;4.30;;;2.80;;
50709;SDS011;37033;49.994;21.992;2023-03-19T03:43:56;4.00;;;2.80;;
50709;SDS011;37033;49.994;21.992;2023-03-19T03:46:26;6.10;;;2.80;;
50709;SDS011;37033;49.994;21.992;2023-03-19T03:48:57;5.50;;;3.30;;
50709;SDS011;37033;49.994;21.992;2023-03-19T03:51:28;3.60;;;2.30;;
50709;SDS011;37033;49.994;21.992;2023-03-19T03:53:59;8.20;;;2.60;;
50709;SDS011;37033;49.994;21.992;2023-03-19T03:56:30;5.40;;;2.60;;
50709;SDS011;37033;49.994;21.992;2023-03-19T03:59:01;4.20;;;2.50;;
50709;SDS011;37033;49.994;21.992;2023-03-19T04:01:32;3.20;;;2.40;;
50709;SDS011;37033;49.994;21.992;2023-03-19T04:04:03;4.60;;;2.40;;
50709;SDS011;37033;49.994;21.992;2023-03-19T04:06:34;3.80;;;2.60;;
50709;SDS011;37033;49.994;21.992;2023-03-19T04:09:04;5.10;;;3.40;;
50709;SDS011;37033;49.994;21.992;2023-03-19T04:11:35;7.00;;;3.60;;
50709;SDS011;37033;49.994;21.992;2023-03-19T04:14:07;5.20;;;3.90;;
50709;SDS011;37033;49.994;21.992;2023-03-19T04:16:38;5.70;;;3.30;;
50709;SDS011;37033;49.994;21.992;2023-03-19T04:19:10;6.00;;;4.00;;
50709;SDS011;37033;49.994;21.992;2023-03-19T04:21:41;6.30;;;3.80;;
50709;SDS011;37033;49.994;21.992;2023-03-19T04:24:12;5.70;;;4.20;;
50709;SDS011;37033;49.994;21.992;2023-03-19T04:26:43;8.70;;;4.10;;
50709;SDS011;37033;49.994;21.992;2023-03-19T04:29:16;5.80;;;3.60;;
50709;SDS011;37033;49.994;21.992;2023-03-19T04:31:47;5.60;;;3.80;;
50709;SDS011;37033;49.994;21.992;2023-03-19T04:34:18;9.20;;;4.20;;
50709;SDS011;37033;49.994;21.992;2023-03-19T04:36:49;8.40;;;4.00;;
50709;SDS011;37033;49.994;21.992;2023-03-19T04:39:19;6.00;;;3.30;;
50709;SDS011;37033;49.994;21.992;2023-03-19T04:41:51;5.60;;;3.20;;
50709;SDS011;37033;49.994;21.992;2023-03-19T04:44:22;6.40;;;3.80;;
50709;SDS011;37033;49.994;21.992;2023-03-19T04:46:52;4.80;;;3.00;;
50709;SDS011;37033;49.994;21.992;2023-03-19T04:49:23;6.10;;;3.80;;
50709;SDS011;37033;49.994;21.992;2023-03-19T04:51:54;7.40;;;4.30;;
50709;SDS011;37033;49.994;21.992;2023-03-19T04:54:25;6.20;;;3.40;;
50709;SDS011;37033;49.994;21.992;2023-03-19T04:56:56;6.60;;;3.90;;
50709;SDS011;37033;49.994;21.992;2023-03-19T04:59:27;6.20;;;3.40;;
50709;SDS011;37033;49.994;21.992;2023-03-19T05:01:58;7.10;;;3.50;;
50709;SDS011;37033;49.994;21.992;2023-03-19T05:04:29;7.50;;;3.80;;
50709;SDS011;37033;49.994;21.992;2023-03-19T05:07:00;5.60;;;4.30;;
50709;SDS011;37033;49.994;21.992;2023-03-19T05:09:30;8.20;;;4.70;;
50709;SDS011;37033;49.994;21.992;2023-03-19T05:12:01;7.20;;;3.50;;
50709;SDS011;37033;49.994;21.992;2023-03-19T05:14:32;6.60;;;3.50;;
50709;SDS011;37033;49.994;21.992;2023-03-19T05:17:03;6.40;;;4.10;;
50709;SDS011;37033;49.994;21.992;2023-03-19T05:19:34;5.80;;;3.10;;
50709;SDS011;37033;49.994;21.992;2023-03-19T05:22:05;7.20;;;3.30;;
50709;SDS011;37033;49.994;21.992;2023-03-19T05:24:35;4.40;;;3.20;;
50709;SDS011;37033;49.994;21.992;2023-03-19T05:27:06;5.30;;;3.70;;
50709;SDS011;37033;49.994;21.992;2023-03-19T05:29:37;6.30;;;3.60;;
50709;SDS011;37033;49.994;21.992;2023-03-19T05:32:09;6.80;;;3.20;;
50709;SDS011;37033;49.994;21.992;2023-03-19T05:34:40;4.80;;;3.00;;
50709;SDS011;37033;49.994;21.992;2023-03-19T05:37:11;7.10;;;3.30;;
50709;SDS011;37033;49.994;21.992;2023-03-19T05:39:42;5.80;;;3.40;;
50709;SDS011;37033;49.994;21.992;2023-03-19T05:42:12;4.90;;;3.20;;
50709;SDS011;37033;49.994;21.992;2023-03-19T05:44:43;5.30;;;3.10;;
50709;SDS011;37033;49.994;21.992;2023-03-19T05:47:15;7.50;;;3.80;;
50709;SDS011;37033;49.994;21.992;2023-03-19T05:49:45;7.40;;;4.10;;
50709;SDS011;37033;49.994;21.992;2023-03-19T05:52:16;7.40;;;4.30;;
50709;SDS011;37033;49.994;21.992;2023-03-19T05:54:47;7.40;;;3.80;;
50709;SDS011;37033;49.994;21.992;2023-03-19T05:57:17;9.90;;;4.00;;
50709;SDS011;37033;49.994;21.992;2023-03-19T05:59:48;5.10;;;4.00;;
50709;SDS011;37033;49.994;21.992;2023-03-19T06:02:19;4.80;;;3.70;;
50709;SDS011;37033;49.994;21.992;2023-03-19T06:04:50;5.50;;;3.60;;
50709;SDS011;37033;49.994;21.992;2023-03-19T06:07:20;8.30;;;4.10;;
50709;SDS011;37033;49.994;21.992;2023-03-19T06:09:51;9.00;;;3.70;;
50709;SDS011;37033;49.994;21.992;2023-03-19T06:12:22;8.30;;;4.00;;
50709;SDS011;37033;49.994;21.992;2023-03-19T06:14:53;5.60;;;3.50;;
50709;SDS011;37033;49.994;21.992;2023-03-19T06:17:23;6.50;;;4.30;;
50709;SDS011;37033;49.994;21.992;2023-03-19T06:19:54;4.60;;;3.30;;
50709;SDS011;37033;49.994;21.992;2023-03-19T06:22:25;8.30;;;4.50;;
50709;SDS011;37033;49.994;21.992;2023-03-19T06:24:56;6.10;;;3.70;;
50709;SDS011;37033;49.994;21.992;2023-03-19T06:27:27;5.10;;;3.70;;
50709;SDS011;37033;49.994;21.992;2023-03-19T06:29:57;6.30;;;3.50;;
50709;SDS011;37033;49.994;21.992;2023-03-19T06:32:28;6.40;;;4.10;;
50709;SDS011;37033;49.994;21.992;2023-03-19T06:34:59;7.50;;;4.70;;
50709;SDS011;37033;49.994;21.992;2023-03-19T06:37:30;4.00;;;3.20;;
50709;SDS011;37033;49.994;21.992;2023-03-19T06:40:01;3.90;;;2.70;;
50709;SDS011;37033;49.994;21.992;2023-03-19T06:42:32;5.00;;;2.90;;
50709;SDS011;37033;49.994;21.992;2023-03-19T06:45:03;4.70;;;3.20;;
50709;SDS011;37033;49.994;21.992;2023-03-19T06:47:35;7.90;;;2.70;;
50709;SDS011;37033;49.994;21.992;2023-03-19T06:50:09;2.90;;;2.50;;
50709;SDS011;37033;49.994;21.992;2023-03-19T06:52:41;3.40;;;2.80;;
50709;SDS011;37033;49.994;21.992;2023-03-19T06:55:12;3.80;;;2.60;;
50709;SDS011;37033;49.994;21.992;2023-03-19T06:57:42;5.00;;;3.20;;
50709;SDS011;37033;49.994;21.992;2023-03-19T07:00:18;5.80;;;3.30;;
50709;SDS011;37033;49.994;21.992;2023-03-19T07:02:50;3.10;;;2.60;;
50709;SDS011;37033;49.994;21.992;2023-03-19T07:05:21;6.40;;;3.10;;
50709;SDS011;37033;49.994;21.992;2023-03-19T07:07:52;3.90;;;2.90;;
50709;SDS011;37033;49.994;21.992;2023-03-19T07:10:23;5.00;;;3.10;;
50709;SDS011;37033;49.994;21.992;2023-03-19T07:12:53;5.20;;;3.30;;
50709;SDS011;37033;49.994;21.992;2023-03-19T07:15:24;5.00;;;3.60;;
50709;SDS011;37033;49.994;21.992;2023-03-19T07:17:55;3.00;;;2.70;;
50709;SDS011;37033;49.994;21.992;2023-03-19T07:20:26;4.20;;;2.50;;
50709;SDS011;37033;49.994;21.992;2023-03-19T07:22:57;4.20;;;3.20;;
50709;SDS011;37033;49.994;21.992;2023-03-19T07:25:28;5.10;;;3.10;;
50709;SDS011;37033;49.994;21.992;2023-03-19T07:27:59;5.30;;;2.90;;
50709;SDS011;37033;49.994;21.992;2023-03-19T07:30:29;6.20;;;3.60;;
50709;SDS011;37033;49.994;21.992;2023-03-19T07:33:00;6.40;;;3.60;;
50709;SDS011;37033;49.994;21.992;2023-03-19T07:35:31;7.20;;;3.20;;
50709;SDS011;37033;49.994;21.992;2023-03-19T07:38:03;5.70;;;3.60;;
50709;SDS011;37033;49.994;21.992;2023-03-19T07:40:33;4.40;;;3.30;;
50709;SDS011;37033;49.994;21.992;2023-03-19T07:43:04;4.10;;;3.30;;
50709;SDS011;37033;49.994;21.992;2023-03-19T07:45:35;3.80;;;3.00;;
50709;SDS011;37033;49.994;21.992;2023-03-19T07:48:06;4.80;;;3.30;;
50709;SDS011;37033;49.994;21.992;2023-03-19T07:50:37;3.80;;;3.30;;
50709;SDS011;37033;49.994;21.992;2023-03-19T07:53:08;4.10;;;3.70;;
50709;SDS011;37033;49.994;21.992;2023-03-19T07:55:39;5.30;;;3.60;;
50709;SDS011;37033;49.994;21.992;2023-03-19T07:58:09;4.00;;;2.70;;
50709;SDS011;37033;49.994;21.992;2023-03-19T08:00:40;7.90;;;3.10;;
50709;SDS011;37033;49.994;21.992;2023-03-19T08:03:11;3.70;;;2.80;;
50709;SDS011;37033;49.994;21.992;2023-03-19T08:05:42;3.30;;;2.90;;
50709;SDS011;37033;49.994;21.992;2023-03-19T08:08:15;3.80;;;3.10;;
50709;SDS011;37033;49.994;21.992;2023-03-19T08:10:46;3.00;;;2.50;;
50709;SDS011;37033;49.994;21.992;2023-03-19T08:13:17;6.20;;;3.40;;
50709;SDS011;37033;49.994;21.992;2023-03-19T08:15:49;7.30;;;4.00;;
50709;SDS011;37033;49.994;21.992;2023-03-19T08:18:20;4.30;;;2.70;;
50709;SDS011;37033;49.994;21.992;2023-03-19T08:20:51;5.10;;;3.00;;
50709;SDS011;37033;49.994;21.992;2023-03-19T08:23:21;2.90;;;2.50;;
50709;SDS011;37033;49.994;21.992;2023-03-19T08:25:53;3.10;;;2.40;;
50709;SDS011;37033;49.994;21.992;2023-03-19T08:28:24;3.60;;;2.80;;
50709;SDS011;37033;49.994;21.992;2023-03-19T08:30:55;5.60;;;3.30;;
50709;SDS011;37033;49.994;21.992;2023-03-19T08:33:25;7.80;;;4.40;;
50709;SDS011;37033;49.994;21.992;2023-03-19T08:36:03;4.40;;;3.80;;
50709;SDS011;37033;49.994;21.992;2023-03-19T08:38:36;3.40;;;2.40;;
50709;SDS011;37033;49.994;21.992;2023-03-19T08:41:07;4.30;;;3.00;;
50709;SDS011;37033;49.994;21.992;2023-03-19T08:43:38;4.80;;;2.80;;
50709;SDS011;37033;49.994;21.992;2023-03-19T08:46:08;2.50;;;2.10;;
50709;SDS011;37033;49.994;21.992;2023-03-19T08:48:39;4.70;;;2.60;;
50709;SDS011;37033;49.994;21.992;2023-03-19T08:51:10;2.70;;;2.30;;
50709;SDS011;37033;49.994;21.992;2023-03-19T08:53:42;3.10;;;2.80;;
50709;SDS011;37033;49.994;21.992;2023-03-19T08:56:13;4.50;;;3.00;;
50709;SDS011;37033;49.994;21.992;2023-03-19T08:58:43;3.80;;;2.90;;
50709;SDS011;37033;49.994;21.992;2023-03-19T09:01:14;4.30;;;2.70;;
50709;SDS011;37033;49.994;21.992;2023-03-19T09:03:45;2.90;;;2.60;;
50709;SDS011;37033;49.994;21.992;2023-03-19T09:06:16;2.90;;;2.30;;
50709;SDS011;37033;49.994;21.992;2023-03-19T09:08:46;2.80;;;2.60;;
50709;SDS011;37033;49.994;21.992;2023-03-19T09:11:17;3.00;;;2.60;;
50709;SDS011;37033;49.994;21.992;2023-03-19T09:13:48;3.20;;;2.40;;
50709;SDS011;37033;49.994;21.992;2023-03-19T09:16:19;4.20;;;3.00;;
50709;SDS011;37033;49.994;21.992;2023-03-19T09:18:50;4.50;;;2.90;;
50709;SDS011;37033;49.994;21.992;2023-03-19T09:21:21;6.60;;;3.00;;
50709;SDS011;37033;49.994;21.992;2023-03-19T09:23:51;3.00;;;2.10;;
50709;SDS011;37033;49.994;21.992;2023-03-19T09:26:22;7.40;;;3.20;;
50709;SDS011;37033;49.994;21.992;2023-03-19T09:28:53;3.00;;;2.30;;
50709;SDS011;37033;49.994;21.992;2023-03-19T09:31:24;3.60;;;2.10;;
50709;SDS011;37033;49.994;21.992;2023-03-19T09:33:55;3.10;;;2.30;;
50709;SDS011;37033;49.994;21.992;2023-03-19T09:36:26;2.70;;;2.30;;
50709;SDS011;37033;49.994;21.992;2023-03-19T09:38:57;4.40;;;2.70;;
50709;SDS011;37033;49.994;21.992;2023-03-19T09:41:28;3.90;;;2.60;;
50709;SDS011;37033;49.994;21.992;2023-03-19T09:44:05;4.00;;;2.60;;
50709;SDS011;37033;49.994;21.992;2023-03-19T09:46:42;5.10;;;2.90;;
50709;SDS011;37033;49.994;21.992;2023-03-19T09:49:20;3.90;;;2.80;;
50709;SDS011;37033;49.994;21.992;2023-03-19T09:51:54;5.10;;;2.50;;
50709;SDS011;37033;49.994;21.992;2023-03-19T09:54:28;3.10;;;2.20;;
50709;SDS011;37033;49.994;21.992;2023-03-19T09:57:00;4.80;;;2.40;;
50709;SDS011;37033;49.994;21.992;2023-03-19T09:59:31;4.10;;;2.80;;
50709;SDS011;37033;49.994;21.992;2023-03-19T10:05:08;3.30;;;2.40;;
50709;SDS011;37033;49.994;21.992;2023-03-19T10:07:54;3.80;;;2.30;;
50709;SDS011;37033;49.994;21.992;2023-03-19T10:10:46;5.60;;;2.60;;
50709;SDS011;37033;49.994;21.992;2023-03-19T10:13:32;2.40;;;1.70;;
50709;SDS011;37033;49.994;21.992;2023-03-19T10:16:12;4.20;;;2.60;;
50709;SDS011;37033;49.994;21.992;2023-03-19T10:18:49;2.40;;;2.20;;
50709;SDS011;37033;49.994;21.992;2023-03-19T10:21:23;3.20;;;2.60;;
50709;SDS011;37033;49.994;21.992;2023-03-19T10:23:58;4.90;;;2.70;;
50709;SDS011;37033;49.994;21.992;2023-03-19T10:26:32;2.70;;;2.30;;
50709;SDS011;37033;49.994;21.992;2023-03-19T10:29:04;3.30;;;2.40;;
50709;SDS011;37033;49.994;21.992;2023-03-19T10:31:45;3.50;;;2.00;;
50709;SDS011;37033;49.994;21.992;2023-03-19T10:34:25;2.90;;;2.00;;
50709;SDS011;37033;49.994;21.992;2023-03-19T10:37:00;4.20;;;2.30;;
50709;SDS011;37033;49.994;21.992;2023-03-19T10:39:33;3.70;;;2.90;;
50709;SDS011;37033;49.994;21.992;2023-03-19T10:42:12;4.70;;;3.60;;
50709;SDS011;37033;49.994;21.992;2023-03-19T10:44:55;2.70;;;2.10;;
50709;SDS011;37033;49.994;21.992;2023-03-19T10:47:36;3.40;;;2.10;;
50709;SDS011;37033;49.994;21.992;2023-03-19T10:50:09;2.60;;;1.90;;
50709;SDS011;37033;49.994;21.992;2023-03-19T10:52:45;2.60;;;2.10;;
50709;SDS011;37033;49.994;21.992;2023-03-19T10:55:23;2.80;;;2.00;;
50709;SDS011;37033;49.994;21.992;2023-03-19T10:58:02;2.40;;;1.90;;
50709;SDS011;37033;49.994;21.992;2023-03-19T11:00:34;2.60;;;1.90;;
50709;SDS011;37033;49.994;21.992;2023-03-19T11:03:09;3.60;;;3.00;;
50709;SDS011;37033;49.994;21.992;2023-03-19T11:06:06;4.30;;;2.30;;
50709;SDS011;37033;49.994;21.992;2023-03-19T11:08:51;2.90;;;2.10;;
50709;SDS011;37033;49.994;21.992;2023-03-19T11:11:26;3.80;;;2.30;;
50709;SDS011;37033;49.994;21.992;2023-03-19T11:14:06;3.00;;;2.30;;
50709;SDS011;37033;49.994;21.992;2023-03-19T11:16:49;3.60;;;2.50;;
50709;SDS011;37033;49.994;21.992;2023-03-19T11:19:24;3.30;;;2.40;;
50709;SDS011;37033;49.994;21.992;2023-03-19T11:22:02;4.40;;;3.20;;
50709;SDS011;37033;49.994;21.992;2023-03-19T11:27:18;6.00;;;1.80;;
50709;SDS011;37033;49.994;21.992;2023-03-19T11:29:55;2.90;;;2.50;;
50709;SDS011;37033;49.994;21.992;2023-03-19T11:32:29;3.20;;;2.20;;
50709;SDS011;37033;49.994;21.992;2023-03-19T11:35:18;4.60;;;2.50;;
50709;SDS011;37033;49.994;21.992;2023-03-19T11:37:56;2.60;;;1.90;;
50709;SDS011;37033;49.994;21.992;2023-03-19T11:40:30;2.50;;;2.10;;
50709;SDS011;37033;49.994;21.992;2023-03-19T11:43:19;4.80;;;2.20;;
50709;SDS011;37033;49.994;21.992;2023-03-19T11:46:01;3.70;;;1.80;;
50709;SDS011;37033;49.994;21.992;2023-03-19T11:48:43;5.40;;;2.30;;
50709;SDS011;37033;49.994;21.992;2023-03-19T11:51:29;4.10;;;2.30;;
50709;SDS011;37033;49.994;21.992;2023-03-19T11:54:07;2.00;;;1.80;;
50709;SDS011;37033;49.994;21.992;2023-03-19T11:56:49;3.50;;;2.20;;
50709;SDS011;37033;49.994;21.992;2023-03-19T11:59:30;2.60;;;1.80;;
50709;SDS011;37033;49.994;21.992;2023-03-19T12:08:05;2.20;;;1.70;;
50709;SDS011;37033;49.994;21.992;2023-03-19T12:10:50;3.10;;;1.60;;
50709;SDS011;37033;49.994;21.992;2023-03-19T12:13:30;2.10;;;1.60;;
50709;SDS011;37033;49.994;21.992;2023-03-19T12:16:11;2.70;;;2.30;;
50709;SDS011;37033;49.994;21.992;2023-03-19T12:18:53;2.90;;;2.20;;
50709;SDS011;37033;49.994;21.992;2023-03-19T12:21:43;3.40;;;2.00;;
50709;SDS011;37033;49.994;21.992;2023-03-19T12:24:26;3.20;;;2.20;;
50709;SDS011;37033;49.994;21.992;2023-03-19T12:27:11;2.90;;;2.60;;
50709;SDS011;37033;49.994;21.992;2023-03-19T12:29:55;3.00;;;2.60;;
50709;SDS011;37033;49.994;21.992;2023-03-19T12:32:35;4.40;;;2.00;;
50709;SDS011;37033;49.994;21.992;2023-03-19T12:35:17;3.50;;;1.80;;
50709;SDS011;37033;49.994;21.992;2023-03-19T12:37:55;3.80;;;2.00;;
50709;SDS011;37033;49.994;21.992;2023-03-19T12:40:31;4.00;;;3.50;;
50709;SDS011;37033;49.994;21.992;2023-03-19T12:43:10;2.60;;;2.00;;
50709;SDS011;37033;49.994;21.992;2023-03-19T12:45:46;3.10;;;2.80;;
50709;SDS011;37033;49.994;21.992;2023-03-19T12:48:19;4.60;;;3.10;;
50709;SDS011;37033;49.994;21.992;2023-03-19T12:50:57;3.00;;;2.30;;
50709;SDS011;37033;49.994;21.992;2023-03-19T12:53:34;5.60;;;2.20;;
50709;SDS011;37033;49.994;21.992;2023-03-19T12:56:16;3.50;;;2.20;;
50709;SDS011;37033;49.994;21.992;2023-03-19T12:58:52;2.60;;;2.10;;
50709;SDS011;37033;49.994;21.992;2023-03-19T13:01:29;2.10;;;1.80;;
50709;SDS011;37033;49.994;21.992;2023-03-19T13:04:07;5.90;;;2.50;;
50709;SDS011;37033;49.994;21.992;2023-03-19T13:06:43;2.70;;;2.20;;
50709;SDS011;37033;49.994;21.992;2023-03-19T13:09:22;3.50;;;2.60;;
50709;SDS011;37033;49.994;21.992;2023-03-19T13:11:58;9.10;;;5.70;;
50709;SDS011;37033;49.994;21.992;2023-03-19T13:14:35;6.80;;;3.50;;
50709;SDS011;37033;49.994;21.992;2023-03-19T13:17:17;14.00;;;8.30;;
50709;SDS011;37033;49.994;21.992;2023-03-19T13:19:54;9.00;;;7.30;;
50709;SDS011;37033;49.994;21.992;2023-03-19T13:22:27;7.40;;;3.50;;
50709;SDS011;37033;49.994;21.992;2023-03-19T13:25:02;3.70;;;2.70;;
50709;SDS011;37033;49.994;21.992;2023-03-19T13:27:35;2.60;;;1.90;;
50709;SDS011;37033;49.994;21.992;2023-03-19T13:30:16;3.40;;;2.50;;
50709;SDS011;37033;49.994;21.992;2023-03-19T13:32:49;3.30;;;2.50;;
50709;SDS011;37033;49.994;21.992;2023-03-19T13:35:35;4.30;;;2.40;;
50709;SDS011;37033;49.994;21.992;2023-03-19T13:38:16;3.50;;;2.40;;
50709;SDS011;37033;49.994;21.992;2023-03-19T13:40:49;4.20;;;2.90;;
50709;SDS011;37033;49.994;21.992;2023-03-19T13:46:36;3.00;;;2.50;;
50709;SDS011;37033;49.994;21.992;2023-03-19T13:49:23;3.70;;;2.30;;
50709;SDS011;37033;49.994;21.992;2023-03-19T13:51:56;3.30;;;2.50;;
50709;SDS011;37033;49.994;21.992;2023-03-19T13:54:37;4.30;;;2.20;;
50709;SDS011;37033;49.994;21.992;2023-03-19T13:57:30;3.50;;;2.50;;
50709;SDS011;37033;49.994;21.992;2023-03-19T14:03:19;3.10;;;2.80;;
50709;SDS011;37033;49.994;21.992;2023-03-19T14:05:52;6.50;;;4.70;;
50709;SDS011;37033;49.994;21.992;2023-03-19T14:08:26;5.10;;;2.90;;
50709;SDS011;37033;49.994;21.992;2023-03-19T14:11:00;4.60;;;2.70;;
50709;SDS011;37033;49.994;21.992;2023-03-19T14:13:35;4.30;;;3.40;;
50709;SDS011;37033;49.994;21.992;2023-03-19T14:16:14;6.20;;;4.00;;
50709;SDS011;37033;49.994;21.992;2023-03-19T14:18:49;2.80;;;2.30;;
50709;SDS011;37033;49.994;21.992;2023-03-19T14:21:32;3.70;;;2.70;;
50709;SDS011;37033;49.994;21.992;2023-03-19T14:24:24;2.90;;;2.30;;
50709;SDS011;37033;49.994;21.992;2023-03-19T14:27:02;3.30;;;2.40;;
50709;SDS011;37033;49.994;21.992;2023-03-19T14:29:42;3.80;;;2.80;;
50709;SDS011;37033;49.994;21.992;2023-03-19T14:32:16;4.00;;;2.20;;
50709;SDS011;37033;49.994;21.992;2023-03-19T14:34:54;5.00;;;2.60;;
50709;SDS011;37033;49.994;21.992;2023-03-19T14:37:26;5.00;;;2.30;;
50709;SDS011;37033;49.994;21.992;2023-03-19T14:40:08;4.00;;;3.30;;
50709;SDS011;37033;49.994;21.992;2023-03-19T14:42:49;4.70;;;2.80;;
50709;SDS011;37033;49.994;21.992;2023-03-19T14:45:33;3.30;;;2.60;;
50709;SDS011;37033;49.994;21.992;2023-03-19T14:48:17;4.40;;;2.70;;
50709;SDS011;37033;49.994;21.992;2023-03-19T14:51:06;4.40;;;2.60;;
50709;SDS011;37033;49.994;21.992;2023-03-19T14:54:11;3.60;;;3.10;;
50709;SDS011;37033;49.994;21.992;2023-03-19T14:56:52;6.30;;;5.00;;
50709;SDS011;37033;49.994;21.992;2023-03-19T14:59:25;7.70;;;3.40;;
50709;SDS011;37033;49.994;21.992;2023-03-19T15:02:04;3.40;;;2.70;;
50709;SDS011;37033;49.994;21.992;2023-03-19T15:04:46;4.10;;;3.00;;
50709;SDS011;37033;49.994;21.992;2023-03-19T15:07:19;3.90;;;2.80;;
50709;SDS011;37033;49.994;21.992;2023-03-19T15:09:58;4.40;;;3.00;;
50709;SDS011;37033;49.994;21.992;2023-03-19T15:12:33;4.70;;;3.40;;
50709;SDS011;37033;49.994;21.992;2023-03-19T15:15:26;7.90;;;5.80;;
50709;SDS011;37033;49.994;21.992;2023-03-19T15:18:08;8.00;;;6.10;;
50709;SDS011;37033;49.994;21.992;2023-03-19T15:20:42;5.90;;;4.80;;
50709;SDS011;37033;49.994;21.992;2023-03-19T15:23:16;6.90;;;5.70;;
50709;SDS011;37033;49.994;21.992;2023-03-19T15:25:49;5.20;;;4.60;;
50709;SDS011;37033;49.994;21.992;2023-03-19T15:28:24;5.80;;;5.00;;
50709;SDS011;37033;49.994;21.992;2023-03-19T15:30:57;7.40;;;5.00;;